RJTR weather

Kastner Army Heliport
Camp Zama, Tōkyō Prefecture, Japan

Public forecast

Using degrees Celsius for public forecast. Weather courtesy of forecast.io.

Current aviation weather report (METAR) for Kastner Army Heliport

Report is more than 6 hours old.

Retrieved 2020/02/27 05:01 UTC (2 days ago):

RJTR 270501Z AUTO 35014G24KT 10SM CLR 10/M05 A2997 RMK AO2 WSHFT 0453 SLPNO

Closest aviation forecast (TAF) to Kastner Army Heliport

Forecast is more than 12 hours old.

Closest forecast is Atsugi Naval Air Facility, 4.5 nm (8.3 km) SE. Retrieved 2011/10/31 12:54 UTC (8 years ago):

TAF TAF RJTA 311100Z 3112/0112 36012KT 9999 FEW030CU TEMPO 0103/0109 07008KT